createdAt,value
2023-12-13T00:00:05.418Z,12.48
2023-12-13T00:01:17.158Z,11.07
2023-12-13T00:02:19.344Z,10.70
2023-12-13T00:03:21.480Z,16.20
2023-12-13T00:04:23.953Z,10.32
2023-12-13T00:05:26.473Z,12.80
2023-12-13T00:06:29.842Z,15.77
2023-12-13T00:07:32.342Z,11.75
2023-12-13T00:08:34.681Z,12.65
2023-12-13T00:09:39.454Z,15.75
2023-12-13T00:10:59.182Z,12.38
2023-12-13T00:12:03.067Z,12.45
2023-12-13T00:13:05.145Z,18.52
2023-12-13T00:14:09.968Z,13.50
2023-12-13T00:15:15.130Z,15.65
2023-12-13T00:16:19.624Z,15.98
2023-12-13T00:17:21.920Z,15.65
2023-12-13T00:18:25.171Z,14.73
2023-12-13T00:19:27.621Z,13.75
2023-12-13T00:20:31.301Z,12.82
2023-12-13T00:21:36.627Z,13.38
2023-12-13T00:22:39.188Z,12.02
2023-12-13T00:23:42.874Z,14.68
2023-12-13T00:24:46.158Z,19.98
2023-12-13T00:25:48.457Z,17.52
2023-12-13T00:26:51.423Z,13.10
2023-12-13T00:27:53.626Z,15.57
2023-12-13T00:28:55.965Z,14.75
2023-12-13T00:30:00.260Z,17.98
2023-12-13T00:31:08.681Z,12.02
2023-12-13T00:32:11.286Z,12.48
2023-12-13T00:33:13.728Z,11.80
2023-12-13T00:34:15.786Z,22.77
2023-12-13T00:35:18.012Z,13.85
2023-12-13T00:36:20.105Z,14.48
2023-12-13T00:37:22.268Z,12.27
2023-12-13T00:38:25.658Z,13.68
2023-12-13T00:39:30.469Z,17.65
2023-12-13T00:40:32.697Z,17.23
2023-12-13T00:41:34.950Z,15.38
2023-12-13T00:42:37.025Z,10.65
2023-12-13T00:43:39.126Z,16.38
2023-12-13T00:44:41.281Z,20.02
2023-12-13T00:45:43.393Z,15.57
2023-12-13T00:46:45.906Z,26.05
2023-12-13T00:47:48.130Z,18.38
2023-12-13T00:48:50.987Z,11.27
2023-12-13T00:49:53.713Z,14.30
2023-12-13T00:50:57.579Z,15.52
2023-12-13T00:52:00.692Z,10.73
2023-12-13T00:53:02.920Z,17.02
2023-12-13T00:54:05.798Z,17.27
2023-12-13T00:55:09.807Z,16.15
2023-12-13T00:56:12.689Z,20.55
2023-12-13T00:57:15.272Z,13.98
2023-12-13T00:58:17.579Z,16.48
2023-12-13T00:59:19.633Z,18.17
2023-12-13T01:00:22.251Z,18.15
2023-12-13T01:01:26.052Z,17.13
2023-12-13T01:02:29.167Z,9.57
2023-12-13T01:03:33.271Z,13.77
2023-12-13T01:04:37.799Z,18.17
2023-12-13T01:05:40.087Z,16.80
2023-12-13T01:06:42.488Z,11.38
2023-12-13T01:07:45.045Z,13.63
2023-12-13T01:08:47.379Z,10.43
2023-12-13T01:09:49.740Z,13.57
2023-12-13T01:10:52.033Z,17.92
2023-12-13T01:11:54.446Z,17.65
2023-12-13T01:12:59.425Z,20.27
2023-12-13T01:14:02.241Z,20.92
2023-12-13T01:15:04.785Z,16.65
2023-12-13T01:16:07.460Z,14.63
2023-12-13T01:17:12.554Z,14.38
2023-12-13T01:18:17.022Z,8.48
2023-12-13T01:19:20.315Z,12.57
2023-12-13T01:20:23.385Z,12.27
2023-12-13T01:21:25.443Z,14.68
2023-12-13T01:22:28.730Z,18.13
2023-12-13T01:23:32.772Z,11.95
2023-12-13T01:24:39.456Z,15.73
2023-12-13T01:25:43.304Z,17.95
2023-12-13T01:26:45.504Z,19.60
2023-12-13T01:27:47.625Z,19.42
2023-12-13T01:28:50.035Z,15.43
2023-12-13T01:29:52.575Z,12.48
2023-12-13T01:30:54.865Z,17.30
2023-12-13T01:31:59.322Z,15.40
2023-12-13T01:33:01.456Z,17.38
2023-12-13T01:34:05.460Z,11.18
2023-12-13T01:35:08.362Z,11.55
2023-12-13T01:36:10.605Z,19.17
2023-12-13T01:37:13.085Z,19.88
2023-12-13T01:38:17.191Z,16.88
2023-12-13T01:39:23.169Z,13.88
2023-12-13T01:40:25.671Z,9.07
2023-12-13T01:41:37.709Z,16.60
2023-12-13T01:42:40.656Z,16.20
2023-12-13T01:43:43.362Z,13.95
2023-12-13T01:44:45.869Z,13.75
2023-12-13T01:45:49.894Z,15.57
2023-12-13T01:46:54.375Z,14.52
2023-12-13T01:47:56.624Z,17.35
2023-12-13T01:48:58.841Z,10.32
2023-12-13T01:50:02.041Z,16.88
2023-12-13T01:51:10.341Z,11.90
2023-12-13T01:52:14.590Z,14.85
2023-12-13T01:53:21.769Z,11.07
2023-12-13T01:54:26.007Z,16.73
2023-12-13T01:55:28.727Z,20.10
2023-12-13T01:56:31.617Z,13.45
2023-12-13T01:57:34.247Z,10.77
2023-12-13T01:58:42.907Z,16.25
2023-12-13T02:00:50.383Z,14.55
2023-12-13T02:01:53.972Z,13.13
2023-12-13T02:02:59.105Z,15.48
2023-12-13T02:04:05.644Z,12.98
2023-12-13T02:05:09.738Z,22.88
2023-12-13T02:06:15.008Z,14.20
2023-12-13T02:07:18.615Z,20.45
2023-12-13T02:08:22.250Z,16.15
2023-12-13T02:09:24.479Z,24.60
2023-12-13T02:10:26.547Z,10.82
2023-12-13T02:11:28.896Z,14.30
2023-12-13T02:12:32.845Z,13.32
2023-12-13T02:13:35.966Z,15.80
2023-12-13T02:14:39.473Z,11.65
2023-12-13T02:15:43.752Z,17.58
2023-12-13T02:16:48.816Z,15.02
2023-12-13T02:17:54.949Z,14.00
2023-12-13T02:19:01.737Z,16.08
2023-12-13T02:20:04.141Z,17.35
2023-12-13T02:21:08.039Z,10.90
2023-12-13T02:22:10.283Z,13.95
2023-12-13T02:23:14.386Z,13.45
2023-12-13T02:24:19.755Z,17.92
2023-12-13T02:25:37.225Z,20.45
2023-12-13T02:26:44.777Z,14.23
2023-12-13T02:27:48.076Z,15.05
2023-12-13T02:28:51.835Z,14.88
2023-12-13T02:29:54.681Z,17.63
2023-12-13T02:30:59.887Z,13.35
2023-12-13T02:32:02.284Z,11.18
2023-12-13T02:33:04.511Z,14.88
2023-12-13T02:34:07.065Z,12.95
2023-12-13T02:35:12.559Z,16.35
2023-12-13T02:36:14.777Z,14.65
2023-12-13T02:37:20.958Z,24.90
2023-12-13T02:38:24.431Z,20.20
2023-12-13T02:39:27.785Z,11.93
2023-12-13T02:40:29.914Z,14.13
2023-12-13T02:41:33.763Z,18.23
2023-12-13T02:42:38.340Z,19.50
2023-12-13T02:43:40.691Z,20.08
2023-12-13T02:44:45.715Z,12.40
2023-12-13T02:45:49.565Z,17.33
2023-12-13T02:46:52.311Z,10.73
2023-12-13T02:47:54.786Z,11.65
2023-12-13T02:49:00.941Z,11.75
2023-12-13T02:50:04.336Z,15.57
2023-12-13T02:51:06.850Z,15.15
2023-12-13T02:52:09.942Z,14.85
2023-12-13T02:53:14.297Z,15.80
2023-12-13T02:54:18.363Z,8.55
2023-12-13T02:55:33.517Z,13.50
2023-12-13T02:56:36.224Z,11.60
2023-12-13T02:57:38.962Z,17.00
2023-12-13T02:58:41.863Z,13.75
2023-12-13T02:59:44.833Z,19.50
2023-12-13T03:00:49.633Z,16.10
2023-12-13T03:01:54.351Z,14.60
2023-12-13T03:03:00.921Z,13.13
2023-12-13T03:04:04.807Z,14.95
2023-12-13T03:05:08.027Z,15.63
2023-12-13T03:06:13.293Z,20.45
2023-12-13T03:07:17.359Z,12.43
2023-12-13T03:08:22.925Z,12.25
2023-12-13T03:09:25.248Z,20.80
2023-12-13T03:10:29.257Z,19.80
2023-12-13T03:11:32.152Z,14.88
2023-12-13T03:12:34.277Z,17.90
2023-12-13T03:13:36.423Z,16.90
2023-12-13T03:14:44.848Z,15.20
2023-12-13T03:15:47.674Z,13.02
2023-12-13T03:16:49.922Z,15.75
2023-12-13T03:17:52.368Z,17.35
2023-12-13T03:18:56.062Z,9.60
2023-12-13T03:20:04.817Z,14.55
2023-12-13T03:21:07.590Z,16.75
2023-12-13T03:22:09.936Z,12.93
2023-12-13T03:23:12.625Z,11.85
2023-12-13T03:24:15.384Z,13.95
2023-12-13T03:25:17.878Z,10.30
2023-12-13T03:26:20.659Z,25.95
2023-12-13T03:27:22.718Z,15.77
2023-12-13T03:28:24.866Z,16.60
2023-12-13T03:29:27.043Z,13.85
2023-12-13T03:30:32.052Z,22.08
2023-12-13T03:31:34.887Z,15.45
2023-12-13T03:32:37.502Z,12.93
2023-12-13T03:33:41.898Z,15.15
2023-12-13T03:34:44.687Z,11.18
2023-12-13T03:35:47.924Z,17.00
2023-12-13T03:36:50.156Z,10.13
2023-12-13T03:37:53.966Z,16.83
2023-12-13T03:38:58.937Z,15.65
2023-12-13T03:40:01.507Z,13.02
2023-12-13T03:41:03.627Z,11.77
2023-12-13T03:42:05.868Z,10.98
2023-12-13T03:43:08.070Z,16.35
2023-12-13T03:44:10.315Z,12.15
2023-12-13T03:45:13.009Z,16.30
2023-12-13T03:46:16.363Z,12.95
2023-12-13T03:47:19.454Z,10.52
2023-12-13T03:48:24.625Z,12.02
2023-12-13T03:49:29.266Z,15.13
2023-12-13T03:50:33.164Z,19.77
2023-12-13T03:51:39.411Z,7.80
2023-12-13T03:52:41.758Z,16.55
2023-12-13T03:53:46.620Z,10.20
2023-12-13T03:54:50.309Z,15.88
2023-12-13T03:55:52.438Z,18.70
2023-12-13T03:56:54.560Z,18.38
2023-12-13T03:57:56.796Z,16.20
2023-12-13T03:58:59.120Z,16.67
2023-12-13T04:00:01.836Z,17.52
2023-12-13T04:01:08.645Z,13.35
2023-12-13T04:02:10.829Z,15.02
2023-12-13T04:03:13.015Z,14.77
2023-12-13T04:04:16.312Z,14.48
2023-12-13T04:05:18.605Z,12.82
2023-12-13T04:06:20.840Z,20.02
2023-12-13T04:07:24.107Z,11.95
2023-12-13T04:08:26.365Z,21.50
2023-12-13T04:09:28.698Z,21.13
2023-12-13T04:10:30.824Z,24.25
2023-12-13T04:11:33.737Z,18.70
2023-12-13T04:12:36.015Z,16.65
2023-12-13T04:13:42.369Z,21.85
2023-12-13T04:14:44.565Z,17.45
2023-12-13T04:15:48.629Z,10.85
2023-12-13T04:16:53.844Z,9.88
2023-12-13T04:17:59.489Z,15.35
2023-12-13T04:19:02.017Z,15.82
2023-12-13T04:20:05.032Z,18.40
2023-12-13T04:21:07.851Z,15.50
2023-12-13T04:22:09.992Z,16.05
2023-12-13T04:23:13.410Z,13.85
2023-12-13T04:24:15.608Z,18.42
2023-12-13T04:25:17.825Z,12.90
2023-12-13T04:26:22.152Z,20.70
2023-12-13T04:27:24.370Z,10.60
2023-12-13T04:28:30.262Z,14.95
2023-12-13T04:29:33.521Z,15.85
2023-12-13T04:30:36.670Z,12.85
2023-12-13T04:31:40.661Z,13.73
2023-12-13T04:32:42.968Z,12.85
2023-12-13T04:33:45.875Z,11.88
2023-12-13T04:34:48.198Z,14.15
2023-12-13T04:35:52.385Z,15.10
2023-12-13T04:36:55.277Z,16.60
2023-12-13T04:37:57.536Z,24.08
2023-12-13T04:38:59.817Z,20.27
2023-12-13T04:40:02.368Z,17.73
2023-12-13T04:41:09.484Z,14.77
2023-12-13T04:42:11.549Z,16.00
2023-12-13T04:43:13.809Z,10.60
2023-12-13T04:44:17.220Z,17.75
2023-12-13T04:45:19.350Z,13.82
2023-12-13T04:46:21.685Z,15.75
2023-12-13T04:47:23.883Z,12.35
2023-12-13T04:48:28.649Z,17.98
2023-12-13T04:49:30.981Z,20.70
2023-12-13T04:50:36.675Z,14.50
2023-12-13T04:51:39.461Z,12.13
2023-12-13T04:52:41.703Z,13.60
2023-12-13T04:53:43.957Z,15.95
2023-12-13T04:54:46.008Z,19.48
2023-12-13T04:55:49.120Z,19.20
2023-12-13T04:56:51.241Z,17.80
2023-12-13T04:57:54.429Z,11.88
2023-12-13T04:58:56.729Z,16.92
2023-12-13T04:59:58.947Z,12.70
2023-12-13T05:01:01.278Z,18.30
2023-12-13T05:02:03.651Z,12.00
2023-12-13T05:03:08.152Z,15.70
2023-12-13T05:04:10.856Z,14.38
2023-12-13T05:05:13.319Z,16.08
2023-12-13T05:06:17.609Z,15.27
2023-12-13T05:07:19.912Z,12.68
2023-12-13T05:08:23.241Z,16.48
2023-12-13T05:09:25.372Z,17.65
2023-12-13T05:10:29.531Z,15.23
2023-12-13T05:11:31.696Z,19.83
2023-12-13T05:12:34.140Z,18.38
2023-12-13T05:13:36.209Z,13.43
2023-12-13T05:14:39.197Z,18.85
2023-12-13T05:15:41.412Z,13.68
2023-12-13T05:16:44.517Z,16.88
2023-12-13T05:17:48.465Z,18.98
2023-12-13T05:18:50.839Z,16.52
2023-12-13T05:19:56.123Z,15.38
2023-12-13T05:20:58.829Z,17.45
2023-12-13T05:22:01.122Z,17.42
2023-12-13T05:23:03.273Z,15.68
2023-12-13T05:24:07.026Z,18.23
2023-12-13T05:25:09.439Z,23.02
2023-12-13T05:26:11.589Z,16.63
2023-12-13T05:27:13.730Z,16.80
2023-12-13T05:28:15.785Z,16.25
2023-12-13T05:29:18.708Z,15.13
2023-12-13T05:30:25.091Z,12.80
2023-12-13T05:31:30.301Z,15.77
2023-12-13T05:32:32.662Z,14.73
2023-12-13T05:33:37.258Z,12.88
2023-12-13T05:34:39.460Z,15.48
2023-12-13T05:35:42.644Z,17.35
2023-12-13T05:36:48.000Z,14.93
2023-12-13T05:37:55.103Z,18.55
2023-12-13T05:38:58.632Z,16.73
2023-12-13T05:40:04.647Z,12.32
2023-12-13T05:41:07.111Z,20.27
2023-12-13T05:42:10.778Z,13.00
2023-12-13T05:43:13.335Z,20.92
2023-12-13T05:44:15.916Z,17.15
2023-12-13T05:45:18.190Z,13.15
2023-12-13T05:46:35.453Z,15.05
2023-12-13T05:47:38.743Z,17.40
2023-12-13T05:48:41.309Z,17.33
2023-12-13T05:49:45.112Z,19.75
2023-12-13T05:50:47.574Z,15.45
2023-12-13T05:51:52.031Z,12.48
2023-12-13T05:52:54.539Z,18.92
2023-12-13T05:53:58.091Z,13.65
2023-12-13T05:55:04.054Z,26.30
2023-12-13T05:56:10.158Z,20.20
2023-12-13T05:57:15.760Z,21.17
2023-12-13T05:58:17.981Z,20.48
2023-12-13T05:59:20.193Z,23.60
2023-12-13T06:00:23.099Z,13.65
2023-12-13T06:01:25.470Z,14.63
2023-12-13T06:02:27.629Z,20.38
2023-12-13T06:03:32.892Z,14.32
2023-12-13T06:04:37.863Z,14.80
2023-12-13T06:05:40.142Z,16.02
2023-12-13T06:06:47.580Z,15.15
2023-12-13T06:07:50.999Z,24.90
2023-12-13T06:08:55.356Z,32.95
2023-12-13T06:09:58.252Z,10.35
2023-12-13T06:11:00.437Z,15.98
2023-12-13T06:12:05.612Z,17.10
2023-12-13T06:13:09.370Z,20.15
2023-12-13T06:14:11.539Z,16.80
2023-12-13T06:15:15.615Z,14.13
2023-12-13T06:16:18.054Z,28.65
2023-12-13T06:17:20.206Z,12.40
2023-12-13T06:18:22.439Z,14.25
2023-12-13T06:19:28.611Z,13.90
2023-12-13T06:20:30.871Z,13.10
2023-12-13T06:21:34.479Z,22.88
2023-12-13T06:22:37.599Z,20.42
2023-12-13T06:23:40.052Z,17.08
2023-12-13T06:24:43.533Z,12.90
2023-12-13T06:25:45.790Z,15.82
2023-12-13T06:26:49.542Z,28.38
2023-12-13T06:27:51.663Z,18.30
2023-12-13T06:28:53.965Z,24.65
2023-12-13T06:29:56.517Z,18.50
2023-12-13T06:30:59.141Z,22.05
2023-12-13T06:32:02.545Z,19.55
2023-12-13T06:33:05.366Z,21.23
2023-12-13T06:34:07.600Z,19.98
2023-12-13T06:35:11.164Z,19.67
2023-12-13T06:36:13.600Z,18.45
2023-12-13T06:37:16.076Z,21.35
2023-12-13T06:38:18.419Z,20.27
2023-12-13T06:39:20.849Z,14.25
2023-12-13T06:40:23.100Z,17.85
2023-12-13T06:41:25.416Z,13.52
2023-12-13T06:42:27.544Z,20.65
2023-12-13T06:43:30.275Z,19.85
2023-12-13T06:44:32.388Z,13.65
2023-12-13T06:45:37.226Z,12.93
2023-12-13T06:46:41.853Z,21.05
2023-12-13T06:47:47.615Z,17.10
2023-12-13T06:48:50.205Z,25.00
2023-12-13T06:49:53.821Z,18.23
2023-12-13T06:50:56.628Z,20.40
2023-12-13T06:52:07.254Z,12.40
2023-12-13T06:53:11.206Z,16.40
2023-12-13T06:54:13.518Z,16.42
2023-12-13T06:55:16.090Z,16.17
2023-12-13T06:56:19.626Z,23.30
2023-12-13T06:57:21.908Z,9.80
2023-12-13T06:58:24.170Z,19.05
2023-12-13T06:59:26.401Z,25.90
2023-12-13T07:00:28.914Z,21.88
2023-12-13T07:01:31.138Z,15.35
2023-12-13T07:02:33.560Z,15.27
2023-12-13T07:03:35.788Z,14.07
2023-12-13T07:04:38.167Z,20.67
2023-12-13T07:05:40.426Z,14.02
2023-12-13T07:06:43.331Z,19.98
2023-12-13T07:07:48.548Z,15.25
2023-12-13T07:08:50.688Z,14.75
2023-12-13T07:09:52.774Z,21.92
2023-12-13T07:10:55.311Z,13.07
2023-12-13T07:11:59.745Z,13.93
2023-12-13T07:13:03.250Z,18.23
2023-12-13T07:14:06.405Z,19.10
2023-12-13T07:15:10.045Z,13.85
2023-12-13T07:16:13.967Z,19.17
2023-12-13T07:17:18.747Z,20.55
2023-12-13T07:18:23.047Z,17.40
2023-12-13T07:19:25.464Z,26.20
2023-12-13T07:20:29.531Z,16.02
2023-12-13T07:21:31.791Z,12.70
2023-12-13T07:22:40.703Z,20.38
2023-12-13T07:23:46.759Z,17.45
2023-12-13T07:24:48.930Z,25.27
2023-12-13T07:25:51.106Z,20.00
2023-12-13T07:26:53.102Z,18.52
2023-12-13T07:27:56.933Z,18.08
2023-12-13T07:29:02.776Z,16.10
2023-12-13T07:30:07.633Z,20.83
2023-12-13T07:31:11.035Z,24.63
2023-12-13T07:32:14.382Z,22.65
2023-12-13T07:33:17.773Z,23.23
2023-12-13T07:34:22.070Z,21.45
2023-12-13T07:35:25.127Z,19.60
2023-12-13T07:36:27.954Z,18.73
2023-12-13T07:37:31.530Z,18.35
2023-12-13T07:38:33.866Z,23.50
2023-12-13T07:39:37.856Z,26.50
2023-12-13T07:40:40.175Z,17.80
2023-12-13T07:41:43.011Z,19.33
2023-12-13T07:42:47.699Z,22.63
2023-12-13T07:43:50.047Z,21.50
2023-12-13T07:44:52.208Z,19.70
2023-12-13T07:45:55.726Z,22.52
2023-12-13T07:46:58.072Z,29.50
2023-12-13T07:48:09.113Z,16.23
2023-12-13T07:49:21.097Z,18.27
2023-12-13T07:50:23.567Z,27.50
2023-12-13T07:51:26.888Z,21.17
2023-12-13T07:52:29.155Z,20.38
2023-12-13T07:53:32.398Z,21.27
2023-12-13T07:54:34.881Z,16.70
2023-12-13T07:55:37.096Z,19.58
2023-12-13T07:56:39.573Z,14.68
2023-12-13T07:57:41.638Z,12.68
2023-12-13T07:58:43.883Z,20.58
2023-12-13T07:59:47.158Z,20.88
2023-12-13T08:00:49.441Z,24.38
2023-12-13T08:01:52.151Z,21.23
2023-12-13T08:02:54.448Z,17.77
2023-12-13T08:03:58.508Z,16.45
2023-12-13T08:05:00.559Z,12.13
2023-12-13T08:06:04.284Z,16.02
2023-12-13T08:07:07.478Z,20.67
2023-12-13T08:08:10.818Z,16.40
2023-12-13T08:09:13.174Z,18.55
2023-12-13T08:10:15.899Z,27.65
2023-12-13T08:11:18.272Z,19.65
2023-12-13T08:12:20.755Z,26.50
2023-12-13T08:13:23.118Z,22.83
2023-12-13T08:14:31.696Z,19.88
2023-12-13T08:15:33.792Z,27.80
2023-12-13T08:16:35.972Z,25.60
2023-12-13T08:17:42.177Z,24.33
2023-12-13T08:18:44.564Z,19.80
2023-12-13T08:19:46.893Z,28.88
2023-12-13T08:20:49.302Z,23.15
2023-12-13T08:21:52.969Z,23.25
2023-12-13T08:22:55.195Z,16.27
2023-12-13T08:23:57.393Z,21.77
2023-12-13T08:24:59.689Z,25.80
2023-12-13T08:26:02.166Z,14.10
2023-12-13T08:27:04.882Z,12.23
2023-12-13T08:28:06.989Z,18.33
2023-12-13T08:29:09.744Z,15.27
2023-12-13T08:30:13.055Z,14.23
2023-12-13T08:31:21.035Z,18.00
2023-12-13T08:32:29.263Z,31.63
2023-12-13T08:33:32.490Z,20.52
2023-12-13T08:34:34.852Z,22.55
2023-12-13T08:35:37.948Z,20.67
2023-12-13T08:36:40.006Z,25.90
2023-12-13T08:37:43.220Z,26.63
2023-12-13T08:38:46.932Z,19.05
2023-12-13T08:39:50.435Z,21.65
2023-12-13T08:40:52.805Z,28.95
2023-12-13T08:41:54.990Z,20.10
2023-12-13T08:42:57.287Z,25.50
2023-12-13T08:43:59.581Z,15.98
2023-12-13T08:45:01.837Z,18.35
2023-12-13T08:46:07.953Z,25.52
2023-12-13T08:47:10.024Z,17.02
2023-12-13T08:48:12.301Z,22.23
2023-12-13T08:49:14.607Z,28.27
2023-12-13T08:50:18.689Z,18.40
2023-12-13T08:51:20.876Z,20.30
2023-12-13T08:52:23.037Z,24.27
2023-12-13T08:53:28.187Z,24.05
2023-12-13T08:54:31.166Z,28.42
2023-12-13T08:55:33.306Z,22.65
2023-12-13T08:56:35.708Z,20.40
2023-12-13T08:57:39.624Z,25.08
2023-12-13T08:58:41.886Z,19.20
2023-12-13T08:59:45.166Z,23.10
2023-12-13T09:00:48.304Z,20.58
2023-12-13T09:01:50.583Z,23.40
2023-12-13T09:02:53.028Z,31.45
2023-12-13T09:03:55.312Z,31.73
2023-12-13T09:04:59.985Z,23.55
2023-12-13T09:06:03.832Z,21.90
2023-12-13T09:07:07.557Z,25.70
2023-12-13T09:08:10.843Z,16.33
2023-12-13T09:09:15.666Z,26.05
2023-12-13T09:10:18.155Z,25.95
2023-12-13T09:11:21.318Z,27.75
2023-12-13T09:12:26.031Z,31.30
2023-12-13T09:13:28.530Z,29.08
2023-12-13T09:14:30.779Z,22.25
2023-12-13T09:15:32.980Z,20.17
2023-12-13T09:16:35.425Z,24.58
2023-12-13T09:17:40.958Z,31.52
2023-12-13T09:18:45.078Z,17.60
2023-12-13T09:19:47.927Z,21.70
2023-12-13T09:20:49.977Z,30.05
2023-12-13T09:21:52.247Z,29.05
2023-12-13T09:23:01.831Z,26.90
2023-12-13T09:24:05.572Z,24.70
2023-12-13T09:25:09.481Z,22.73
2023-12-13T09:26:15.157Z,30.60
2023-12-13T09:27:17.405Z,18.35
2023-12-13T09:28:20.095Z,21.73
2023-12-13T09:29:22.343Z,25.80
2023-12-13T09:30:24.703Z,23.88
2023-12-13T09:31:26.911Z,22.65
2023-12-13T09:32:30.436Z,21.48
2023-12-13T09:33:32.620Z,26.13
2023-12-13T09:34:37.251Z,28.40
2023-12-13T09:35:39.885Z,19.83
2023-12-13T09:36:42.804Z,33.03
2023-12-13T09:37:47.527Z,22.55
2023-12-13T09:38:49.974Z,22.58
2023-12-13T09:39:59.597Z,21.98
2023-12-13T09:41:11.230Z,30.25
2023-12-13T09:42:14.190Z,28.65
2023-12-13T09:43:16.330Z,27.80
2023-12-13T09:44:19.087Z,24.73
2023-12-13T09:45:25.554Z,23.45
2023-12-13T09:46:28.577Z,27.58
2023-12-13T09:47:35.119Z,26.70
2023-12-13T09:48:40.148Z,29.45
2023-12-13T09:49:43.871Z,23.73
2023-12-13T09:50:49.233Z,26.25
2023-12-13T09:51:51.787Z,20.45
2023-12-13T09:52:56.892Z,26.60
2023-12-13T09:54:00.037Z,31.65
2023-12-13T09:55:03.459Z,20.75
2023-12-13T09:56:12.373Z,21.08
2023-12-13T09:57:16.404Z,23.98
2023-12-13T09:58:18.776Z,20.15
2023-12-13T09:59:20.855Z,22.60
2023-12-13T10:00:23.179Z,21.35
2023-12-13T10:01:26.997Z,22.17
2023-12-13T10:02:32.467Z,27.30
2023-12-13T10:03:36.620Z,25.15
2023-12-13T10:04:40.549Z,25.35
2023-12-13T10:05:46.168Z,25.40
2023-12-13T10:06:48.808Z,22.08
2023-12-13T10:08:00.524Z,25.25
2023-12-13T10:09:04.310Z,22.48
2023-12-13T10:10:07.258Z,26.73
2023-12-13T10:11:12.321Z,29.17
2023-12-13T10:12:17.288Z,29.15
2023-12-13T10:13:19.557Z,18.60
2023-12-13T10:14:24.985Z,26.05
2023-12-13T10:15:34.217Z,26.85
2023-12-13T10:16:42.526Z,29.60
2023-12-13T10:17:44.936Z,17.60
2023-12-13T10:18:49.098Z,21.02
2023-12-13T10:19:51.494Z,28.20
2023-12-13T10:20:56.031Z,21.25
2023-12-13T10:21:58.545Z,26.00
2023-12-13T10:23:01.023Z,34.45
2023-12-13T10:24:06.455Z,34.58
2023-12-13T10:25:09.427Z,32.40
2023-12-13T10:26:13.671Z,23.80
2023-12-13T10:27:23.384Z,29.52
2023-12-13T10:28:25.747Z,24.58
2023-12-13T10:29:28.987Z,19.67
2023-12-13T10:30:31.726Z,18.42
2023-12-13T10:31:36.792Z,24.15
2023-12-13T10:32:39.730Z,17.67
2023-12-13T10:33:41.770Z,21.75
2023-12-13T10:34:44.040Z,23.75
2023-12-13T10:35:53.532Z,26.45
2023-12-13T10:36:56.833Z,29.30
2023-12-13T10:38:04.632Z,25.38
2023-12-13T10:39:08.864Z,32.78
2023-12-13T10:40:14.740Z,23.77
2023-12-13T10:41:17.454Z,14.93
2023-12-13T10:42:21.743Z,29.25
2023-12-13T10:43:26.112Z,21.95
2023-12-13T10:44:34.155Z,26.77
2023-12-13T10:45:45.072Z,22.45
2023-12-13T10:46:53.249Z,30.77
2023-12-13T10:48:00.729Z,30.45
2023-12-13T10:49:08.102Z,31.35
2023-12-13T10:50:12.952Z,26.52
2023-12-13T10:51:17.083Z,23.50
2023-12-13T10:52:22.329Z,35.92
2023-12-13T10:53:25.822Z,24.88
2023-12-13T10:54:29.589Z,33.05
2023-12-13T10:55:31.868Z,25.20
2023-12-13T10:56:39.869Z,34.10
2023-12-13T10:57:43.900Z,33.67
2023-12-13T10:58:46.529Z,26.42
2023-12-13T10:59:50.831Z,36.20
2023-12-13T11:00:53.729Z,34.65
2023-12-13T11:01:57.964Z,22.15
2023-12-13T11:03:16.764Z,23.65
2023-12-13T11:04:20.075Z,37.22
2023-12-13T11:05:23.041Z,17.42
2023-12-13T11:06:28.093Z,24.77
2023-12-13T11:07:31.579Z,30.67
2023-12-13T11:08:40.581Z,30.42
2023-12-13T11:09:53.549Z,23.50
2023-12-13T11:11:06.073Z,27.70
2023-12-13T11:12:11.879Z,24.05
2023-12-13T11:13:23.363Z,28.35
2023-12-13T11:14:29.611Z,37.80
2023-12-13T11:15:31.884Z,24.63
2023-12-13T11:16:42.239Z,24.40
2023-12-13T11:17:51.750Z,32.90
2023-12-13T11:18:58.529Z,20.90
2023-12-13T11:20:09.882Z,25.55
2023-12-13T11:21:15.002Z,33.55
2023-12-13T11:22:17.184Z,27.90
2023-12-13T11:23:28.444Z,22.58
2023-12-13T11:24:34.413Z,20.08
2023-12-13T11:25:38.626Z,31.10
2023-12-13T11:26:43.859Z,31.13
2023-12-13T11:27:54.406Z,25.23
2023-12-13T11:28:57.902Z,26.52
2023-12-13T11:30:15.891Z,30.00
2023-12-13T11:31:25.948Z,29.50
2023-12-13T11:32:36.615Z,30.52
2023-12-13T11:33:39.588Z,20.13
2023-12-13T11:34:44.702Z,29.38
2023-12-13T11:35:47.693Z,33.42
2023-12-13T11:36:57.035Z,32.00
2023-12-13T11:38:05.098Z,25.67
2023-12-13T11:39:12.859Z,22.80
2023-12-13T11:40:16.697Z,25.52
2023-12-13T11:41:19.757Z,25.95
2023-12-13T11:42:22.502Z,17.88
2023-12-13T11:43:24.838Z,28.42
2023-12-13T11:44:30.284Z,26.45
2023-12-13T11:45:34.919Z,28.83
2023-12-13T11:46:38.316Z,21.67
2023-12-13T11:47:43.591Z,23.23
2023-12-13T11:48:46.731Z,24.75
2023-12-13T11:49:49.003Z,36.58
2023-12-13T11:50:53.840Z,30.13
2023-12-13T11:51:58.438Z,27.10
2023-12-13T11:53:01.071Z,23.45
2023-12-13T11:54:03.643Z,25.75
2023-12-13T11:55:08.061Z,32.30
2023-12-13T11:56:13.809Z,22.38
2023-12-13T11:57:18.060Z,24.80
2023-12-13T11:58:20.544Z,28.02
2023-12-13T11:59:23.007Z,23.20
2023-12-13T12:00:25.375Z,22.67
2023-12-13T12:01:27.793Z,35.30
2023-12-13T12:02:29.992Z,25.50
2023-12-13T12:03:32.124Z,25.63
2023-12-13T12:04:34.570Z,29.90
2023-12-13T12:05:37.123Z,34.00
2023-12-13T12:06:51.506Z,25.17
2023-12-13T12:08:00.910Z,26.75
2023-12-13T12:09:04.763Z,21.88
2023-12-13T12:10:08.992Z,27.33
2023-12-13T12:11:14.327Z,33.15
2023-12-13T12:12:19.245Z,31.95
2023-12-13T12:13:22.140Z,29.92
2023-12-13T12:14:29.129Z,23.00
2023-12-13T12:15:34.549Z,31.70
2023-12-13T12:16:40.918Z,20.23
2023-12-13T12:17:43.395Z,22.67
2023-12-13T12:18:45.777Z,23.00
2023-12-13T12:19:50.308Z,24.17
2023-12-13T12:20:52.605Z,26.77
2023-12-13T12:22:01.213Z,16.48
2023-12-13T12:23:04.005Z,28.92
2023-12-13T12:24:11.784Z,25.40
2023-12-13T12:25:14.422Z,39.85
2023-12-13T12:26:16.764Z,25.00
2023-12-13T12:27:25.020Z,24.92
2023-12-13T12:28:28.755Z,21.58
2023-12-13T12:29:30.793Z,22.08
2023-12-13T12:30:33.141Z,36.50
2023-12-13T12:31:35.321Z,28.77
2023-12-13T12:32:37.678Z,25.08
2023-12-13T12:33:40.774Z,33.35
2023-12-13T12:34:51.068Z,35.60
2023-12-13T12:35:53.317Z,28.23
2023-12-13T12:36:55.636Z,25.65
2023-12-13T12:38:00.394Z,30.85
2023-12-13T12:39:02.987Z,23.50
2023-12-13T12:40:07.409Z,20.08
2023-12-13T12:41:09.800Z,24.58
2023-12-13T12:42:12.442Z,28.05
2023-12-13T12:43:20.728Z,23.17
2023-12-13T12:44:24.146Z,27.17
2023-12-13T12:45:30.145Z,27.95
2023-12-13T12:46:32.380Z,26.40
2023-12-13T12:47:35.083Z,26.40
2023-12-13T12:48:37.611Z,27.83
2023-12-13T12:49:40.061Z,25.15
2023-12-13T12:50:43.435Z,27.40
2023-12-13T12:51:45.747Z,32.83
2023-12-13T12:52:48.318Z,24.13
2023-12-13T12:53:51.837Z,24.30
2023-12-13T12:54:53.914Z,42.85
2023-12-13T12:55:59.285Z,27.63
2023-12-13T12:57:02.238Z,35.50
2023-12-13T12:58:09.676Z,18.15
2023-12-13T12:59:23.724Z,31.77
2023-12-13T13:00:26.662Z,24.77
2023-12-13T13:01:31.059Z,22.85
2023-12-13T13:02:33.452Z,36.10
2023-12-13T13:03:37.055Z,26.83
2023-12-13T13:04:39.586Z,38.90
2023-12-13T13:05:44.867Z,26.73
2023-12-13T13:06:52.918Z,25.75
2023-12-13T13:07:55.476Z,27.85
2023-12-13T13:08:59.208Z,27.80
2023-12-13T13:10:01.293Z,33.15
2023-12-13T13:11:04.362Z,28.67
2023-12-13T13:12:06.858Z,29.20
2023-12-13T13:13:09.356Z,34.90
2023-12-13T13:14:13.046Z,38.28
2023-12-13T13:15:15.505Z,27.95
2023-12-13T13:16:17.768Z,24.45
2023-12-13T13:17:20.006Z,21.10
2023-12-13T13:18:22.376Z,27.23
2023-12-13T13:19:26.353Z,36.35
2023-12-13T13:20:28.424Z,24.30
2023-12-13T13:21:30.591Z,35.60
2023-12-13T13:22:33.344Z,28.48
2023-12-13T13:23:35.634Z,29.00
2023-12-13T13:24:40.584Z,19.17
2023-12-13T13:25:42.843Z,28.20
2023-12-13T13:26:53.127Z,25.75
2023-12-13T13:27:57.016Z,30.65
2023-12-13T13:29:00.475Z,23.33
2023-12-13T13:30:04.987Z,24.02
2023-12-13T13:31:12.827Z,31.35
2023-12-13T13:32:15.625Z,39.38
2023-12-13T13:33:17.747Z,27.70
2023-12-13T13:34:20.241Z,31.33
2023-12-13T13:35:22.433Z,32.22
2023-12-13T13:36:24.755Z,40.53
2023-12-13T13:37:28.304Z,30.85
2023-12-13T13:38:32.939Z,31.27
2023-12-13T13:39:35.012Z,25.50
2023-12-13T13:40:40.225Z,32.25
2023-12-13T13:41:47.583Z,23.50
2023-12-13T13:42:51.046Z,23.38